Time;durP1;ratioP1;P1;durP2;ratioP2;P2;SDS_P1;SDS_P2;PMS_P1;PMS_P2;Temp;Humidity;BMP_temperature;BMP_pressure;BME280_temperature;BME280_humidity;BME280_pressure;Samples;Min_cycle;Max_cycle;Signal;HPM_P1;HPM_P2
2023/10/21 00:01:38;;;;;;;0.00;0.00;;;;;;;9.17;100.00;97684.78;5010368;28;20042;-46
2023/10/21 00:04:05;;;;;;;0.00;0.00;;;;;;;9.17;100.00;97680.06;5009052;28;20056;-46
2023/10/21 00:06:32;;;;;;;0.00;0.00;;;;;;;9.16;100.00;97689.53;5013238;28;20526;-46
2023/10/21 00:08:58;;;;;;;0.00;0.00;;;;;;;9.17;100.00;97690.31;5010179;28;20076;-46
2023/10/21 00:11:25;;;;;;;0.00;0.00;;;;;;;9.17;100.00;97696.63;5009977;28;20060;-46
2023/10/21 00:13:52;;;;;;;0.00;0.00;;;;;;;9.17;100.00;97696.63;5009899;28;20041;-45
2023/10/21 00:16:19;;;;;;;0.00;0.00;;;;;;;9.19;100.00;97694.22;5007549;28;20297;-52
2023/10/21 00:18:46;;;;;;;0.00;0.00;;;;;;;9.20;100.00;97695.00;5009403;28;20052;-45
2023/10/21 00:21:13;;;;;;;0.00;0.00;;;;;;;9.19;100.00;97694.22;5009558;28;20174;-46
2023/10/21 00:23:40;;;;;;;0.00;0.00;;;;;;;9.21;100.00;97684.75;5010255;28;20049;-46
2023/10/21 00:26:07;;;;;;;0.00;0.00;;;;;;;9.21;100.00;97690.28;5000889;28;20399;-45
2023/10/21 00:28:34;;;;;;;0.00;0.00;;;;;;;9.21;100.00;97687.53;5009443;28;20152;-46
2023/10/21 00:31:03;;;;;;;0.00;0.00;;;;;;;9.19;100.00;97694.22;5009761;28;20045;-45
2023/10/21 00:33:30;;;;;;;0.00;0.00;;;;;;;9.18;100.00;97692.69;5009702;28;21017;-46
2023/10/21 00:35:57;;;;;;;0.00;0.00;;;;;;;9.21;100.00;97706.84;5010021;28;20046;-47
2023/10/21 00:38:24;;;;;;;0.00;0.00;;;;;;;9.21;100.00;97704.09;4996946;28;20054;-45
2023/10/21 00:40:55;;;;;;;0.00;0.00;;;;;;;9.22;100.00;97698.13;5010146;28;20151;-47
2023/10/21 00:43:38;;;;;;;0.00;0.00;;;;;;;9.22;100.00;97708.38;5010097;28;20053;-47
2023/10/21 00:46:09;;;;;;;0.00;0.00;;;;;;;9.21;100.00;97713.16;5010365;28;20550;-45
2023/10/21 00:48:37;;;;;;;0.00;0.00;;;;;;;9.22;100.00;97713.91;5009208;28;20041;-46
2023/10/21 00:51:05;;;;;;;0.00;0.00;;;;;;;9.21;100.00;97715.13;5010775;28;20058;-45
2023/10/21 00:53:33;;;;;;;0.00;0.00;;;;;;;9.22;100.00;97711.16;4996726;28;20041;-47
2023/10/21 00:56:02;;;;;;;0.00;0.00;;;;;;;9.21;100.00;97713.16;5008371;28;20053;-45
2023/10/21 00:58:33;;;;;;;0.00;0.00;;;;;;;9.23;100.00;97721.00;5008833;28;20052;-48
2023/10/21 01:01:08;;;;;;;0.00;0.00;;;;;;;9.24;100.00;97717.06;5008847;28;20136;-46
2023/10/21 01:03:36;;;;;;;0.00;0.00;;;;;;;9.23;100.00;97719.03;5009341;28;20107;-48
2023/10/21 01:06:04;;;;;;;0.00;0.00;;;;;;;9.25;100.00;97713.09;5008858;28;20050;-45
2023/10/21 01:08:42;;;;;;;0.00;0.00;;;;;;;9.25;100.00;97713.09;5009460;28;20046;-46
2023/10/21 01:11:10;;;;;;;0.00;0.00;;;;;;;9.24;100.00;97717.81;5008626;28;20136;-45
2023/10/21 01:13:37;;;;;;;0.00;0.00;;;;;;;9.26;100.00;97720.19;5008636;28;20046;-46
2023/10/21 01:16:03;;;;;;;0.00;0.00;;;;;;;9.25;100.00;97718.63;4994006;28;20708;-45
2023/10/21 01:18:33;;;;;;;0.00;0.00;;;;;;;9.25;100.00;97724.13;5008935;28;20040;-46
2023/10/21 01:21:02;;;;;;;0.00;0.00;;;;;;;9.22;100.00;97722.19;5008831;28;20129;-45
2023/10/21 01:23:30;;;;;;;0.00;0.00;;;;;;;9.24;100.00;97728.88;5008453;28;20057;-46
2023/10/21 01:25:57;;;;;;;0.00;0.00;;;;;;;9.22;100.00;97724.94;5008232;28;20364;-46
2023/10/21 01:28:23;;;;;;;0.00;0.00;;;;;;;9.20;100.00;97728.13;5008199;28;20096;-46
2023/10/21 01:30:50;;;;;;;0.00;0.00;;;;;;;9.21;100.00;97728.94;5008495;28;20034;-45
2023/10/21 01:33:17;;;;;;;0.00;0.00;;;;;;;9.22;100.00;97733.22;4997294;28;20035;-45
2023/10/21 01:35:44;;;;;;;0.00;0.00;;;;;;;9.23;100.00;97737.56;5008656;28;20049;-45
2023/10/21 01:38:11;;;;;;;0.00;0.00;;;;;;;9.24;100.00;97745.44;5008409;28;20084;-45
2023/10/21 01:40:38;;;;;;;0.00;0.00;;;;;;;9.22;100.00;97747.03;5006432;28;20117;-46
2023/10/21 01:43:04;;;;;;;0.00;0.00;;;;;;;9.23;100.00;97743.09;5008651;28;20033;-45
2023/10/21 01:45:34;;;;;;;0.00;0.00;;;;;;;9.23;100.00;97743.88;5007835;28;20041;-46
2023/10/21 01:48:02;;;;;;;0.00;0.00;;;;;;;9.23;100.00;97743.88;5007986;28;20141;-49
2023/10/21 01:50:30;;;;;;;0.00;0.00;;;;;;;9.24;100.00;97736.38;5007675;28;20049;-46
2023/10/21 01:52:57;;;;;;;0.00;0.00;;;;;;;9.22;100.00;97747.81;5007868;28;20038;-46
2023/10/21 01:55:24;;;;;;;0.00;0.00;;;;;;;9.24;100.00;97750.94;5007127;28;20045;-46
2023/10/21 01:57:51;;;;;;;0.00;0.00;;;;;;;9.26;100.00;97748.59;5008269;28;20061;-45
2023/10/21 02:00:22;;;;;;;0.00;0.00;;;;;;;9.27;100.00;97749.34;5006760;28;20145;-46
2023/10/21 02:02:55;;;;;;;0.00;0.00;;;;;;;9.25;100.00;97740.69;5007621;28;20133;-45
2023/10/21 02:05:24;;;;;;;0.00;0.00;;;;;;;9.27;100.00;97746.59;5006897;28;20037;-47
2023/10/21 02:07:51;;;;;;;0.00;0.00;;;;;;;9.27;100.00;97749.34;4990462;28;20057;-46
2023/10/21 02:10:18;;;;;;;0.00;0.00;;;;;;;9.28;100.00;97745.41;5007596;28;20064;-45
2023/10/21 02:12:45;;;;;;;0.00;0.00;;;;;;;9.28;100.00;97745.41;5007939;28;20038;-46
2023/10/21 02:15:14;;;;;;;0.00;0.00;;;;;;;9.28;100.00;97750.94;5007113;28;20816;-47
2023/10/21 02:17:45;;;;;;;0.00;0.00;;;;;;;9.26;100.00;97753.31;5005482;28;20034;-46
2023/10/21 02:20:14;;;;;;;0.00;0.00;;;;;;;9.26;100.00;97747.81;5006744;28;20129;-50
2023/10/21 02:22:41;;;;;;;0.00;0.00;;;;;;;9.26;100.00;97742.28;5001217;28;20058;-46
2023/10/21 02:25:13;;;;;;;0.00;0.00;;;;;;;9.25;100.00;97741.50;5010235;28;20049;-46
2023/10/21 02:27:42;;;;;;;0.00;0.00;;;;;;;9.25;100.00;97737.94;5007278;28;20084;-46
2023/10/21 02:30:15;;;;;;;0.00;0.00;;;;;;;9.25;100.00;97746.22;4999760;28;20050;-46
2023/10/21 02:32:48;;;;;;;0.00;0.00;;;;;;;9.24;100.00;97744.66;5007323;28;20049;-45
2023/10/21 02:35:15;;;;;;;0.00;0.00;;;;;;;9.23;100.00;97732.06;5005549;28;20134;-45
2023/10/21 02:37:42;;;;;;;0.00;0.00;;;;;;;9.22;100.00;97736.78;4989468;28;20049;-46
2023/10/21 02:40:09;;;;;;;0.00;0.00;;;;;;;9.24;100.00;97739.16;4981656;28;20496;-46
2023/10/21 02:42:37;;;;;;;0.00;0.00;;;;;;;9.24;100.00;97737.16;5007314;28;20085;-46
2023/10/21 02:45:05;;;;;;;0.00;0.00;;;;;;;9.23;100.00;97743.88;5006331;28;20254;-46
2023/10/21 02:47:32;;;;;;;0.00;0.00;;;;;;;9.23;100.00;97743.09;5007217;28;20049;-46
2023/10/21 02:49:59;;;;;;;0.00;0.00;;;;;;;9.24;100.00;97748.19;5006307;28;20488;-46
2023/10/21 02:52:26;;;;;;;0.00;0.00;;;;;;;9.25;100.00;97747.00;4997559;28;20038;-45
2023/10/21 02:54:53;;;;;;;0.00;0.00;;;;;;;9.26;100.00;97742.28;5005992;28;20065;-46
2023/10/21 02:57:20;;;;;;;0.00;0.00;;;;;;;9.24;100.00;97744.66;5007261;28;20050;-45
2023/10/21 02:59:47;;;;;;;0.00;0.00;;;;;;;9.24;100.00;97750.19;5006834;28;20029;-46
2023/10/21 03:02:13;;;;;;;0.00;0.00;;;;;;;9.23;100.00;97749.41;5107096;22;20061;-46
2023/10/21 03:04:40;;;;;;;0.00;0.00;;;;;;;9.17;100.00;97749.06;5026005;28;20120;-46
2023/10/21 03:07:07;;;;;;;0.00;0.00;;;;;;;9.15;100.00;97748.69;5027382;28;20084;-45
2023/10/21 03:09:34;;;;;;;0.00;0.00;;;;;;;9.12;100.00;97746.75;5023851;28;20149;-45
2023/10/21 03:12:01;;;;;;;0.00;0.00;;;;;;;9.10;100.00;97749.13;5026465;28;20046;-46
2023/10/21 03:14:28;;;;;;;0.00;0.00;;;;;;;9.09;100.00;97755.03;5022829;28;20554;-48
2023/10/21 03:16:54;;;;;;;0.00;0.00;;;;;;;9.06;100.00;97748.38;5025974;28;20483;-45
2023/10/21 03:19:21;;;;;;;0.00;0.00;;;;;;;9.05;100.00;97749.53;5020675;28;20029;-46
2023/10/21 03:21:48;;;;;;;0.00;0.00;;;;;;;9.05;100.00;97749.53;5026749;28;20080;-46
2023/10/21 03:24:15;;;;;;;0.00;0.00;;;;;;;9.07;100.00;97747.19;5026246;28;20045;-46
2023/10/21 03:26:41;;;;;;;0.00;0.00;;;;;;;9.05;100.00;97760.59;5025939;28;20103;-46
2023/10/21 03:29:08;;;;;;;0.00;0.00;;;;;;;9.07;100.00;97747.19;5025626;28;20034;-46
2023/10/21 03:31:39;;;;;;;0.00;0.00;;;;;;;9.04;100.00;97758.25;5025928;28;20052;-46
2023/10/21 03:34:06;;;;;;;0.00;0.00;;;;;;;9.03;100.00;97756.66;5024906;28;20565;-45
2023/10/21 03:36:32;;;;;;;0.00;0.00;;;;;;;8.99;100.00;97753.94;5026595;28;20045;-45
2023/10/21 03:38:59;;;;;;;0.00;0.00;;;;;;;8.99;100.00;97761.44;5025650;28;20462;-46
2023/10/21 03:41:26;;;;;;;0.00;0.00;;;;;;;8.99;100.00;97767.75;5018854;28;20091;-47
2023/10/21 03:43:52;;;;;;;0.00;0.00;;;;;;;8.95;100.00;97766.97;5026276;28;20069;-46
2023/10/21 03:46:20;;;;;;;0.00;0.00;;;;;;;8.94;100.00;97770.16;5025708;28;20038;-50
2023/10/21 03:48:47;;;;;;;0.00;0.00;;;;;;;8.93;100.00;97772.13;5025767;28;20050;-48
2023/10/21 03:51:14;;;;;;;0.00;0.00;;;;;;;8.91;100.00;97777.28;5017750;28;20077;-48
2023/10/21 03:53:42;;;;;;;0.00;0.00;;;;;;;8.91;100.00;97771.75;5024484;28;20037;-46
2023/10/21 03:56:09;;;;;;;0.00;0.00;;;;;;;8.91;100.00;97780.03;5013083;28;20037;-47
2023/10/21 03:58:37;;;;;;;0.00;0.00;;;;;;;8.89;100.00;97784.38;5029515;28;20103;-47
2023/10/21 04:01:04;;;;;;;0.00;0.00;;;;;;;8.87;100.00;97782.00;5028256;28;20049;-46
2023/10/21 04:03:35;;;;;;;0.00;0.00;;;;;;;8.87;100.00;97787.53;5029183;28;20049;-47
2023/10/21 04:06:03;;;;;;;0.00;0.00;;;;;;;8.87;100.00;97789.53;5028876;28;20487;-46
2023/10/21 04:08:30;;;;;;;0.00;0.00;;;;;;;8.86;100.00;97785.19;5029268;28;20042;-46
2023/10/21 04:10:57;;;;;;;0.00;0.00;;;;;;;8.84;100.00;97782.81;5028596;28;20033;-46
2023/10/21 04:13:24;;;;;;;0.00;0.00;;;;;;;8.84;100.00;97780.06;5025877;28;20038;-50
2023/10/21 04:15:52;;;;;;;0.00;0.00;;;;;;;8.83;100.00;97780.47;5025434;28;20156;-46
2023/10/21 04:18:19;;;;;;;0.00;0.00;;;;;;;8.83;100.00;97774.97;5028671;28;20152;-46
2023/10/21 04:20:47;;;;;;;0.00;0.00;;;;;;;8.82;100.00;97784.41;5029449;28;20057;-50
2023/10/21 04:23:14;;;;;;;0.00;0.00;;;;;;;8.80;100.00;97784.06;5029064;28;20569;-51
2023/10/21 04:25:40;;;;;;;0.00;0.00;;;;;;;8.79;100.00;97791.53;5027426;28;20037;-52
2023/10/21 04:28:07;;;;;;;0.00;0.00;;;;;;;8.81;100.00;97793.91;5018851;28;20103;-47
2023/10/21 04:30:37;;;;;;;0.00;0.00;;;;;;;8.81;100.00;97799.41;5029308;28;20076;-46
2023/10/21 04:33:05;;;;;;;0.00;0.00;;;;;;;8.81;100.00;97811.25;5021813;28;20572;-46
2023/10/21 04:35:32;;;;;;;0.00;0.00;;;;;;;8.76;100.00;97808.13;5028574;28;20057;-49
2023/10/21 04:37:59;;;;;;;0.00;0.00;;;;;;;8.70;100.00;97806.97;5028056;28;20136;-46
2023/10/21 04:40:26;;;;;;;0.00;0.00;;;;;;;8.64;100.00;97812.13;5029473;28;20091;-48
2023/10/21 04:42:53;;;;;;;0.00;0.00;;;;;;;8.60;100.00;97810.59;5029353;28;20046;-46
2023/10/21 04:45:20;;;;;;;0.00;0.00;;;;;;;8.53;100.00;97814.16;5027916;28;20046;-45
2023/10/21 04:47:48;;;;;;;0.00;0.00;;;;;;;8.51;100.00;97825.59;5029237;28;20073;-46
2023/10/21 04:50:15;;;;;;;0.00;0.00;;;;;;;8.49;100.00;97827.19;5023917;28;20495;-47
2023/10/21 04:52:43;;;;;;;0.00;0.00;;;;;;;8.42;100.00;97810.66;5028907;28;20148;-46
2023/10/21 04:55:10;;;;;;;0.00;0.00;;;;;;;8.41;100.00;97820.16;5026596;28;20119;-47
2023/10/21 04:57:37;;;;;;;0.00;0.00;;;;;;;8.38;100.00;97818.19;5028613;28;20049;-50
2023/10/21 05:00:06;;;;;;;0.00;0.00;;;;;;;8.36;100.00;97826.88;5029318;28;20040;-46
2023/10/21 05:02:33;;;;;;;0.00;0.00;;;;;;;8.34;100.00;97826.47;5021879;28;20084;-46
2023/10/21 05:05:00;;;;;;;0.00;0.00;;;;;;;8.36;100.00;97823.31;5026610;28;20407;-46
2023/10/21 05:07:27;;;;;;;0.00;0.00;;;;;;;8.35;100.00;97830.00;5010907;28;20136;-48
2023/10/21 05:09:54;;;;;;;0.00;0.00;;;;;;;8.29;100.00;97834.38;5026469;28;20120;-46
2023/10/21 05:12:21;;;;;;;0.25;0.25;;;;;;;8.27;100.00;97828.47;5027435;28;20037;-54
2023/10/21 05:14:47;;;;;;;0.00;0.00;;;;;;;8.23;100.00;97830.44;5025681;28;20041;-46
2023/10/21 05:17:14;;;;;;;0.00;0.00;;;;;;;8.16;100.00;97830.44;5025802;28;20850;-49
2023/10/21 05:19:41;;;;;;;0.00;0.00;;;;;;;8.12;100.00;97843.47;5028177;28;20037;-47
2023/10/21 05:22:08;;;;;;;0.00;0.00;;;;;;;8.08;100.00;97842.69;5028302;28;20119;-48
2023/10/21 05:24:34;;;;;;;0.00;0.00;;;;;;;8.04;100.00;97844.69;5010084;28;20076;-47
2023/10/21 05:27:02;;;;;;;0.00;0.00;;;;;;;7.99;100.00;97854.16;5023653;28;20056;-47
2023/10/21 05:29:29;;;;;;;0.00;0.00;;;;;;;7.95;100.00;97859.66;4997875;28;20037;-46
2023/10/21 05:31:56;;;;;;;0.00;0.00;;;;;;;7.94;100.00;97869.09;5027143;28;20049;-45
2023/10/21 05:34:22;;;;;;;0.00;0.00;;;;;;;7.95;100.00;97867.91;5026917;28;20041;-49
2023/10/21 05:36:49;;;;;;;0.00;0.00;;;;;;;7.91;100.00;97864.41;5026718;28;20053;-46
2023/10/21 05:39:16;;;;;;;0.00;0.00;;;;;;;7.90;100.00;97871.09;5025394;28;20626;-48
2023/10/21 05:41:42;;;;;;;0.00;0.00;;;;;;;7.87;100.00;97863.63;5027463;28;20052;-45
2023/10/21 05:44:09;;;;;;;0.00;0.00;;;;;;;7.82;100.00;97875.03;5027950;28;20037;-50
2023/10/21 05:46:36;;;;;;;0.00;0.00;;;;;;;7.81;100.00;97873.44;5026231;28;20052;-46
2023/10/21 05:49:04;;;;;;;0.00;0.00;;;;;;;7.79;100.00;97873.06;5026955;28;20050;-45
2023/10/21 05:51:31;;;;;;;0.00;0.00;;;;;;;7.75;100.00;97877.81;5027087;28;20123;-45
2023/10/21 05:53:59;;;;;;;0.00;0.00;;;;;;;7.72;100.00;97878.59;5027375;28;20041;-48
2023/10/21 05:56:26;;;;;;;0.00;0.00;;;;;;;7.72;100.00;97873.09;5015876;28;20050;-49
2023/10/21 05:58:52;;;;;;;0.00;0.00;;;;;;;7.74;100.00;97886.44;5026721;28;20045;-46
2023/10/21 06:01:19;;;;;;;0.00;0.00;;;;;;;7.74;100.00;97886.44;5021416;28;20132;-48
2023/10/21 06:03:46;;;;;;;0.00;0.00;;;;;;;7.74;100.00;97881.75;5026889;28;20042;-46
2023/10/21 06:06:13;;;;;;;0.00;0.00;;;;;;;7.75;100.00;97891.59;5025045;28;20682;-48
2023/10/21 06:08:40;;;;;;;0.00;0.00;;;;;;;7.78;100.00;97895.50;5008823;28;20141;-45
2023/10/21 06:11:08;;;;;;;0.00;0.00;;;;;;;7.77;100.00;97894.72;5027040;28;20037;-46
2023/10/21 06:13:35;;;;;;;0.00;0.00;;;;;;;7.82;100.00;97902.56;5018732;28;20033;-46
2023/10/21 06:16:02;;;;;;;0.00;0.00;;;;;;;7.85;100.00;97904.53;5024140;28;20043;-47
2023/10/21 06:18:29;;;;;;;0.00;0.00;;;;;;;7.86;100.00;97906.09;5021448;28;20048;-47
2023/10/21 06:20:57;;;;;;;0.00;0.00;;;;;;;7.84;100.00;97904.94;5025131;28;20114;-46
2023/10/21 06:23:24;;;;;;;0.00;0.00;;;;;;;7.86;100.00;97911.59;5026195;28;20037;-46
2023/10/21 06:25:50;;;;;;;0.00;0.00;;;;;;;7.88;100.00;97914.78;5025832;28;20621;-46
2023/10/21 06:28:17;;;;;;;0.00;0.00;;;;;;;7.91;100.00;97913.19;5021777;28;20038;-47
2023/10/21 06:30:44;;;;;;;0.00;0.00;;;;;;;7.90;100.00;97919.88;5023655;28;20049;-46
2023/10/21 06:33:11;;;;;;;0.00;0.00;;;;;;;7.90;100.00;97919.88;5026824;28;20048;-46
2023/10/21 06:35:38;;;;;;;0.00;0.00;;;;;;;7.90;100.00;97915.16;5025064;28;20076;-48
2023/10/21 06:38:07;;;;;;;0.00;0.00;;;;;;;7.88;100.00;97925.78;5026678;28;20095;-46
2023/10/21 06:40:34;;;;;;;0.00;0.00;;;;;;;7.90;100.00;97934.44;5019355;28;20396;-46
2023/10/21 06:43:21;;;;;;;0.00;0.00;;;;;;;7.89;100.00;97927.34;5026381;28;20191;-46
2023/10/21 06:45:48;;;;;;;0.00;0.00;;;;;;;7.94;100.00;97924.19;5025862;28;20029;-47
2023/10/21 06:48:14;;;;;;;0.00;0.00;;;;;;;7.97;100.00;97925.38;5025448;28;20050;-46
2023/10/21 06:50:41;;;;;;;0.00;0.00;;;;;;;7.96;100.00;97943.88;5026613;28;20032;-46
2023/10/21 06:53:08;;;;;;;0.00;0.00;;;;;;;7.94;100.00;97943.47;5021934;28;20073;-46
2023/10/21 06:55:43;;;;;;;0.00;0.00;;;;;;;7.95;100.00;97945.06;5025950;28;20036;-47
2023/10/21 06:58:11;;;;;;;0.00;0.00;;;;;;;7.96;100.00;97946.63;5026158;28;20037;-46
2023/10/21 07:00:38;;;;;;;0.00;0.00;;;;;;;7.93;100.00;97954.91;5024484;28;20088;-48
2023/10/21 07:03:05;;;;;;;0.00;0.00;;;;;;;7.94;100.00;97950.97;5025320;28;20041;-48
2023/10/21 07:05:33;;;;;;;0.08;0.08;;;;;;;7.93;100.00;97952.16;5025853;28;20566;-49
2023/10/21 07:08:01;;;;;;;0.00;0.00;;;;;;;7.92;100.00;97951.34;5023931;28;20041;-48
2023/10/21 07:10:29;;;;;;;0.00;0.00;;;;;;;7.89;100.00;97957.66;5026055;28;20051;-46
2023/10/21 07:12:58;;;;;;;0.00;0.00;;;;;;;7.87;100.00;97949.00;5026550;28;20091;-47
2023/10/21 07:15:28;;;;;;;0.00;0.00;;;;;;;7.88;100.00;97947.81;5018479;28;20042;-46
2023/10/21 07:17:57;;;;;;;0.00;0.00;;;;;;;7.89;100.00;97952.13;5017924;28;20505;-47
2023/10/21 07:20:28;;;;;;;0.00;0.00;;;;;;;7.91;100.00;97958.06;5023585;28;20045;-48
2023/10/21 07:22:55;;;;;;;0.00;0.00;;;;;;;7.92;100.00;97962.38;5025425;28;20041;-47
2023/10/21 07:25:23;;;;;;;0.00;0.00;;;;;;;7.95;100.00;97969.84;5026042;28;20099;-47
2023/10/21 07:27:51;;;;;;;0.00;0.00;;;;;;;7.95;100.00;97966.31;5021049;28;20041;-46
2023/10/21 07:30:18;;;;;;;0.00;0.00;;;;;;;7.97;100.00;97972.19;5028683;28;20053;-50
2023/10/21 07:32:46;;;;;;;0.00;0.00;;;;;;;7.98;100.00;97973.78;5015860;28;20037;-46
2023/10/21 07:35:14;;;;;;;0.00;0.00;;;;;;;7.98;100.00;97980.09;5030333;28;20046;-53
2023/10/21 07:37:48;;;;;;;0.00;0.00;;;;;;;8.02;100.00;97984.81;5030489;28;20049;-45
2023/10/21 07:40:15;;;;;;;0.00;0.00;;;;;;;8.05;100.00;97978.50;5028551;28;20042;-47
2023/10/21 07:42:45;;;;;;;0.00;0.00;;;;;;;8.04;100.00;97977.72;5022229;28;20148;-46
2023/10/21 07:45:33;;;;;;;0.00;0.00;;;;;;;8.07;100.00;97984.41;5014948;28;20462;-45
2023/10/21 07:48:12;;;;;;;0.00;0.00;;;;;;;8.08;100.00;97988.72;5029122;28;20491;-48
2023/10/21 07:50:53;;;;;;;0.00;0.00;;;;;;;8.04;100.00;97996.22;5023679;28;20059;-47
2023/10/21 07:53:20;;;;;;;0.00;0.00;;;;;;;8.05;100.00;97984.78;5020559;28;20501;-45
2023/10/21 07:55:50;;;;;;;0.00;0.00;;;;;;;8.09;100.00;98001.31;5027463;28;20034;-45
2023/10/21 07:58:17;;;;;;;0.00;0.00;;;;;;;8.13;100.00;98004.88;5026165;28;20140;-45
2023/10/21 08:00:43;;;;;;;0.00;0.00;;;;;;;8.13;100.00;98002.13;5021155;28;20088;-46
2023/10/21 08:03:10;;;;;;;0.00;0.00;;;;;;;8.16;100.00;98007.59;5028636;28;20076;-46
2023/10/21 08:05:38;;;;;;;0.00;0.00;;;;;;;8.19;100.00;98000.53;5036265;28;20513;-45
2023/10/21 08:08:05;;;;;;;0.00;0.00;;;;;;;8.21;100.00;98009.16;5037682;28;20064;-46
2023/10/21 08:10:32;;;;;;;0.00;0.00;;;;;;;8.24;100.00;98013.91;5027220;28;20136;-47
2023/10/21 08:12:58;;;;;;;0.00;0.00;;;;;;;8.26;100.00;98019.81;5028447;28;20581;-45
2023/10/21 08:15:27;;;;;;;0.00;0.00;;;;;;;8.28;100.00;98021.03;5026316;28;20049;-45
2023/10/21 08:17:53;;;;;;;0.00;0.00;;;;;;;8.31;100.00;98019.44;5027667;28;20048;-45
2023/10/21 08:20:20;;;;;;;0.00;0.00;;;;;;;8.34;100.00;98016.66;5027972;28;20048;-45
2023/10/21 08:22:47;;;;;;;0.00;0.00;;;;;;;8.40;100.00;98022.56;5025835;28;20099;-47
2023/10/21 08:25:14;;;;;;;0.00;0.00;;;;;;;8.41;100.00;98022.19;5021213;28;20037;-45
2023/10/21 08:27:41;;;;;;;0.00;0.00;;;;;;;8.48;100.00;98010.34;5028025;28;20756;-46
2023/10/21 08:30:11;;;;;;;0.00;0.00;;;;;;;8.52;100.00;98014.66;5029326;28;20048;-45
2023/10/21 08:32:38;;;;;;;0.00;0.00;;;;;;;8.58;100.00;98017.78;5002974;28;20407;-45
2023/10/21 08:35:05;;;;;;;0.00;0.00;;;;;;;8.63;100.00;98024.91;5029808;28;20467;-45
2023/10/21 08:37:32;;;;;;;0.00;0.00;;;;;;;8.64;100.00;98027.25;5029503;28;20061;-45
2023/10/21 08:39:58;;;;;;;0.00;0.00;;;;;;;8.65;100.00;98034.34;5027513;28;20087;-45
2023/10/21 08:42:25;;;;;;;0.00;0.00;;;;;;;8.70;100.00;98042.22;5013407;28;20054;-47
2023/10/21 08:45:15;;;;;;;0.00;0.00;;;;;;;8.77;100.00;98035.88;5023069;28;20041;-45
2023/10/21 08:47:44;;;;;;;0.00;0.00;;;;;;;8.80;100.00;98046.91;5016668;28;20580;-45
2023/10/21 08:50:13;;;;;;;0.00;0.00;;;;;;;8.81;100.00;98044.94;5018385;28;20112;-45
2023/10/21 08:52:41;;;;;;;0.00;0.00;;;;;;;8.82;100.00;98041.75;5020488;28;20096;-45
2023/10/21 08:55:09;;;;;;;0.00;0.00;;;;;;;8.86;100.00;98052.78;5023153;28;20041;-45
2023/10/21 08:57:36;;;;;;;0.00;0.00;;;;;;;8.84;100.00;98053.19;5017725;28;20041;-45
2023/10/21 09:00:09;;;;;;;0.00;0.00;;;;;;;8.82;100.00;98052.00;5022838;28;20158;-45
2023/10/21 09:02:38;;;;;;;0.00;0.00;;;;;;;8.82;100.00;98063.03;5016792;28;20152;-45
2023/10/21 09:05:14;;;;;;;0.00;0.00;;;;;;;8.88;100.00;98062.25;5020780;28;20556;-47
2023/10/21 09:07:49;;;;;;;0.00;0.00;;;;;;;8.95;100.00;98062.22;5017870;28;20060;-46
2023/10/21 09:10:17;;;;;;;0.00;0.00;;;;;;;9.00;100.00;98067.31;5023112;28;20042;-47
2023/10/21 09:12:45;;;;;;;0.00;0.00;;;;;;;9.04;100.00;98064.56;5024018;28;20065;-47
2023/10/21 09:15:12;;;;;;;0.00;0.00;;;;;;;9.04;100.00;98059.84;5012571;28;20073;-47
2023/10/21 09:17:45;;;;;;;0.00;0.00;;;;;;;9.05;100.00;98075.19;5023692;28;20037;-45
2023/10/21 09:20:16;;;;;;;0.00;0.00;;;;;;;9.08;100.00;98074.38;5022421;28;20038;-45
2023/10/21 09:22:46;;;;;;;0.00;0.00;;;;;;;9.09;100.00;98078.72;5024319;28;20498;-47
2023/10/21 09:25:18;;;;;;;0.00;0.00;;;;;;;9.16;100.00;98075.16;5022113;28;20044;-51
2023/10/21 09:27:44;;;;;;;0.00;0.00;;;;;;;9.21;100.00;98087.75;5018136;28;20045;-49
2023/10/21 09:30:19;;;;;;;0.00;0.00;;;;;;;9.19;100.00;98086.19;5022077;28;20045;-51
2023/10/21 09:32:47;;;;;;;0.00;0.00;;;;;;;9.16;100.00;98086.97;5018053;28;20038;-48
2023/10/21 09:35:16;;;;;;;0.00;0.00;;;;;;;9.14;100.00;98092.13;5017032;28;20411;-49
2023/10/21 09:37:43;;;;;;;0.00;0.00;;;;;;;9.17;100.00;98085.00;5024630;28;20111;-45
2023/10/21 09:40:12;;;;;;;0.00;0.00;;;;;;;9.19;100.00;98090.91;5022689;28;20050;-46
2023/10/21 09:42:42;;;;;;;0.00;0.00;;;;;;;9.22;100.00;98097.59;5021572;28;20467;-45
2023/10/21 09:45:12;;;;;;;0.00;0.00;;;;;;;9.26;100.00;98098.38;5024759;28;20044;-45
2023/10/21 09:47:41;;;;;;;0.00;0.00;;;;;;;9.26;100.00;98101.16;5023232;28;20041;-45
2023/10/21 09:50:13;;;;;;;0.00;0.00;;;;;;;9.29;100.00;98108.63;5020278;28;20176;-48
2023/10/21 09:52:49;;;;;;;;;;;;;;;9.32;100.00;98102.31;5019942;28;20053;-46
2023/10/21 09:55:18;;;;;;;0.00;0.00;;;;;;;9.38;100.00;98108.97;5017351;28;19964;-45
2023/10/21 09:57:48;;;;;;;0.00;0.00;;;;;;;9.47;100.00;98112.91;5013226;28;20046;-45
2023/10/21 10:00:17;;;;;;;0.00;0.00;;;;;;;9.52;100.00;98114.44;5015480;28;20088;-44
2023/10/21 10:02:47;;;;;;;0.00;0.00;;;;;;;9.54;100.00;98123.91;5011398;28;20108;-49
2023/10/21 10:05:17;;;;;;;0.00;0.00;;;;;;;9.58;100.00;98112.84;5013566;28;20154;-47
2023/10/21 10:07:48;;;;;;;0.00;0.00;;;;;;;9.63;100.00;98127.03;5016229;28;20408;-47
2023/10/21 10:10:16;;;;;;;0.00;0.00;;;;;;;9.68;100.00;98123.06;5019217;28;20107;-46
2023/10/21 10:12:49;;;;;;;0.00;0.00;;;;;;;9.67;100.00;98125.03;5017145;28;20422;-48
2023/10/21 10:15:45;;;;;;;0.00;0.00;;;;;;;9.68;100.00;98125.81;5021134;28;20049;-47
2023/10/21 10:18:19;;;;;;;0.00;0.00;;;;;;;9.69;100.00;98130.91;4988643;28;20049;-45
2023/10/21 10:20:51;;;;;;;0.00;0.00;;;;;;;9.74;100.00;98126.97;5018338;28;20050;-46
2023/10/21 10:23:24;;;;;;;0.00;0.00;;;;;;;9.82;100.00;98122.97;5009052;28;20038;-45
2023/10/21 10:25:51;;;;;;;0.00;0.00;;;;;;;9.95;100.00;98129.63;5025179;28;20053;-45
2023/10/21 10:28:20;;;;;;;0.00;0.00;;;;;;;10.04;100.00;98141.00;5021295;28;20485;-46
2023/10/21 10:30:52;;;;;;;0.00;0.00;;;;;;;10.11;100.00;98135.41;5023535;28;21054;-47
2023/10/21 10:33:22;;;;;;;;;;;;;;;10.15;100.00;98133.44;5022658;28;20505;-49
2023/10/21 10:35:51;;;;;;;0.00;0.00;;;;;;;10.10;100.00;98139.38;5019718;28;19925;-47
2023/10/21 10:38:20;;;;;;;0.00;0.00;;;;;;;10.10;100.00;98139.38;5017618;28;20092;-45
2023/10/21 10:40:48;;;;;;;0.10;0.10;;;;;;;10.07;100.00;98128.34;5016568;28;20038;-49
2023/10/21 10:43:18;;;;;;;0.00;0.00;;;;;;;10.05;100.00;98142.56;5016459;28;20045;-50
2023/10/21 10:45:46;;;;;;;0.00;0.00;;;;;;;10.07;100.00;98145.72;5019346;28;20451;-46
2023/10/21 10:48:14;;;;;;;0.00;0.00;;;;;;;10.13;100.00;98138.59;5019669;28;20172;-53
2023/10/21 10:50:42;;;;;;;0.00;0.00;;;;;;;10.29;100.00;98149.94;5015646;28;20053;-48
2023/10/21 10:53:13;;;;;;;0.00;0.00;;;;;;;10.45;100.00;98140.34;5021173;28;20526;-48
2023/10/21 10:55:49;;;;;;;0.00;0.00;;;;;;;10.56;100.00;98150.13;5017365;28;20050;-47
2023/10/21 10:58:18;;;;;;;0.00;0.00;;;;;;;10.59;100.00;98154.06;5020312;28;20073;-47
2023/10/21 11:00:46;;;;;;;0.00;0.00;;;;;;;10.59;100.00;98154.06;5023398;28;20037;-47
2023/10/21 11:03:27;;;;;;;0.00;0.00;;;;;;;10.53;100.00;98155.69;5020029;28;20049;-51
2023/10/21 11:05:56;;;;;;;0.00;0.00;;;;;;;10.44;100.00;98152.59;5017788;28;20038;-48
2023/10/21 11:08:27;;;;;;;0.00;0.00;;;;;;;10.34;100.00;98165.31;5019391;28;20132;-45
2023/10/21 11:11:05;;;;;;;0.00;0.00;;;;;;;10.24;100.00;98155.91;5010831;28;20045;-46
2023/10/21 11:13:32;;;;;;;0.00;0.00;;;;;;;10.18;100.00;98157.53;5018055;28;23011;-46
2023/10/21 11:16:00;;;;;;;0.00;0.00;;;;;;;10.10;100.00;98169.78;5019488;28;20489;-47
2023/10/21 11:18:28;;;;;;;0.00;0.00;;;;;;;10.02;100.00;98159.97;5021999;28;20075;-46
2023/10/21 11:20:55;;;;;;;0.00;0.00;;;;;;;9.98;100.00;98159.19;5016934;28;20057;-49
2023/10/21 11:23:23;;;;;;;0.00;0.00;;;;;;;9.91;100.00;98159.22;5020165;28;20046;-48
2023/10/21 11:25:53;;;;;;;0.00;0.00;;;;;;;9.91;100.00;98164.75;5016116;28;20037;-45
2023/10/21 11:28:20;;;;;;;0.00;0.00;;;;;;;9.98;100.00;98161.94;5019663;28;20430;-46
2023/10/21 11:30:48;;;;;;;0.00;0.00;;;;;;;10.08;100.00;98163.88;5019112;28;20463;-48
2023/10/21 11:33:18;;;;;;;0.00;0.00;;;;;;;10.21;100.00;98169.75;5014979;28;20619;-46
2023/10/21 11:35:47;;;;;;;0.00;0.00;;;;;;;10.34;100.00;98165.31;5017984;28;20892;-46
2023/10/21 11:38:19;;;;;;;0.15;0.15;;;;;;;10.38;100.00;98172.38;5017817;28;20033;-48
2023/10/21 11:40:46;;;;;;;0.00;0.00;;;;;;;10.43;100.00;98178.69;5022322;28;20070;-46